首页
METAR-TAF:

METAR-TAF

机场 :

High Level, 艾伯塔, 加拿大

纬度: 58-37N, 经度: 117-10W, 海拔: 338米

当前天气观测

该预报发布于1小时和11分钟前的16:00 UTC
风速11节,风向北转西北
温度 -22°C
湿度 76%
气压 1033 hPa
能見度: 24.1公里
少量云层高于2300英尺
少量云层高于26000英尺

METAR: CYOJ 021600Z 34011KT 15SM FEW023 FEW260 M22/M25 A3050 RMK SC1CI1 SC TR SLP370

时间: 11:11 (17:11 UTC)

预报

该预报发布于4小时和33分钟前的12:38 UTC
预报有效从02日的 13点(UTC)到 03日的 01点(UTC)
风速8节,风向
能見度: 10公里
天空无云
成为
从 02日的 15点(UTC)到 02日的 17点(UTC)
风速12节,风向北转西北
从 02日的 2000点(UTC)
风速10节,风向北转西北
能見度: 10公里
散云层高于3000英尺
成为
从 02日的 20点(UTC)到 02日的 22点(UTC)
多云层高于3000英尺
从 02日的 2300点(UTC)
风速10节,风向北转西北
能見度: 10公里
多云层高于4000英尺

TAF: CYOJ 021238Z 0213/0301 35008KT P6SM SKC BECMG 0215/0217 34012KT FM022000 34010KT P6SM SCT030 BECMG 0220/0222 BKN030 FM022300 34010KT P6SM BKN040 RMK FCST BASED ON AUTO OBS. NXT FCST BY 021900Z

超过4000个机场的气象观测和天气预报(METAR&TAF报告)。

可查询的气象台以黄色和红色小点在地图上表示。

将鼠标移到小点上方,可查看气象台名称。

然后点击查看天气观测和预报。

如需切换地图:点击带黑十字的绿色按钮放大地图;点击带横线的绿色按钮缩小地图;或者点击绿色箭头查看邻近地区的地图。


METAR-TAF: